createdAt,value
2023-03-02T04:41:39.161Z,15.30
2023-03-02T04:44:06.986Z,16.07
2023-03-02T04:46:35.561Z,17.10
2023-03-02T04:49:04.560Z,15.03
2023-03-02T04:51:35.071Z,15.83
2023-03-02T04:54:05.483Z,16.47
2023-03-02T04:56:33.729Z,16.83
2023-03-02T04:59:03.059Z,17.43
2023-03-02T05:01:30.958Z,16.87
2023-03-02T05:03:59.509Z,15.83
2023-03-02T05:06:28.666Z,17.53
2023-03-02T05:08:59.716Z,14.40
2023-03-02T05:11:28.093Z,16.37
2023-03-02T05:13:57.725Z,17.27
2023-03-02T05:16:29.651Z,16.73
2023-03-02T05:18:57.597Z,15.43
2023-03-02T05:21:26.027Z,16.87
2023-03-02T05:23:54.182Z,15.87
2023-03-02T05:26:22.140Z,16.23
2023-03-02T05:28:51.062Z,16.87
2023-03-02T05:31:23.245Z,17.63
2023-03-02T05:33:52.606Z,16.67
2023-03-02T05:36:22.919Z,16.37
2023-03-02T05:38:51.126Z,17.07
2023-03-02T05:41:19.268Z,17.70
2023-03-02T05:43:47.082Z,16.90
2023-03-02T05:46:16.979Z,16.70
2023-03-02T05:48:46.577Z,15.93
2023-03-02T05:51:15.844Z,16.87
2023-03-02T05:53:44.518Z,16.20
2023-03-02T05:56:12.604Z,17.63
2023-03-02T05:58:40.742Z,16.67
2023-03-02T06:01:10.328Z,16.67
2023-03-02T06:03:38.166Z,16.77
2023-03-02T06:06:06.304Z,15.67
2023-03-02T06:08:40.890Z,16.27
2023-03-02T06:11:09.663Z,17.90
2023-03-02T06:13:37.649Z,17.10
2023-03-02T06:16:06.152Z,17.23
2023-03-02T06:18:34.532Z,16.73
2023-03-02T06:21:02.783Z,16.67
2023-03-02T06:23:30.758Z,18.23
2023-03-02T06:26:00.594Z,16.97
2023-03-02T06:28:28.857Z,17.53
2023-03-02T06:30:56.661Z,17.87
2023-03-02T06:33:24.512Z,17.13
2023-03-02T06:35:52.530Z,16.73
2023-03-02T06:38:20.467Z,17.47
2023-03-02T06:40:48.357Z,16.77
2023-03-02T06:43:17.906Z,17.30
2023-03-02T06:45:45.836Z,17.63
2023-03-02T06:48:13.783Z,17.30
2023-03-02T06:50:41.624Z,17.33
2023-03-02T06:53:09.705Z,18.10
2023-03-02T06:55:37.562Z,19.53
2023-03-02T06:58:05.414Z,17.57
2023-03-02T07:00:34.618Z,16.83
2023-03-02T07:03:02.504Z,16.77
2023-03-02T07:05:32.180Z,17.30
2023-03-02T07:08:00.105Z,18.43
2023-03-02T07:10:28.137Z,18.30
2023-03-02T07:12:56.218Z,19.43
2023-03-02T07:15:24.107Z,17.83
2023-03-02T07:17:53.535Z,18.13
2023-03-02T07:20:21.473Z,17.80
2023-03-02T07:22:49.551Z,18.27
2023-03-02T07:25:17.983Z,17.57
2023-03-02T07:27:45.954Z,17.40
2023-03-02T07:30:14.838Z,17.50
2023-03-02T07:32:43.552Z,18.20
2023-03-02T07:35:13.211Z,18.97
2023-03-02T07:37:41.517Z,18.20
2023-03-02T07:40:13.226Z,17.87
2023-03-02T07:42:41.089Z,17.87
2023-03-02T07:45:09.758Z,17.57
2023-03-02T07:47:37.639Z,19.07
2023-03-02T07:50:06.061Z,18.87
2023-03-02T07:52:35.449Z,17.87
2023-03-02T07:55:03.402Z,17.93
2023-03-02T07:57:31.625Z,18.07
2023-03-02T07:59:59.403Z,18.17
2023-03-02T08:02:27.461Z,18.47
2023-03-02T08:04:55.439Z,17.97
2023-03-02T08:07:23.524Z,17.03
2023-03-02T08:09:52.857Z,16.80
2023-03-02T08:12:20.748Z,16.67
2023-03-02T08:14:48.926Z,17.57
2023-03-02T08:17:16.902Z,18.03
2023-03-02T08:19:45.523Z,17.37
2023-03-02T08:22:13.397Z,16.97
2023-03-02T08:24:42.126Z,16.63
2023-03-02T08:27:14.064Z,16.23
2023-03-02T08:29:42.102Z,15.77
2023-03-02T08:32:10.635Z,16.57
2023-03-02T08:34:38.617Z,16.53
2023-03-02T08:37:06.436Z,15.93
2023-03-02T08:39:34.571Z,16.37
2023-03-02T08:42:02.369Z,16.13
2023-03-02T08:44:31.812Z,15.20
2023-03-02T08:46:59.694Z,15.43
2023-03-02T08:49:27.820Z,15.73
2023-03-02T08:51:56.451Z,15.67
2023-03-02T08:54:24.293Z,15.47
2023-03-02T08:56:52.162Z,15.83
2023-03-02T08:59:21.532Z,14.87
2023-03-02T09:01:50.702Z,13.63
2023-03-02T09:04:18.614Z,14.10
2023-03-02T09:06:47.265Z,14.80
2023-03-02T09:09:15.912Z,13.77
2023-03-02T09:11:44.962Z,14.20
2023-03-02T09:14:13.020Z,14.53
2023-03-02T09:16:41.275Z,13.50
2023-03-02T09:19:12.884Z,15.30
2023-03-02T09:21:40.698Z,13.83
2023-03-02T09:24:08.913Z,14.70
2023-03-02T09:26:38.246Z,14.83
2023-03-02T09:29:07.071Z,14.17
2023-03-02T09:31:35.417Z,14.10
2023-03-02T09:34:03.785Z,14.33
2023-03-02T09:36:34.523Z,14.13
2023-03-02T09:39:08.427Z,14.07
2023-03-02T09:42:01.837Z,13.67
2023-03-02T09:44:53.771Z,13.73
2023-03-02T09:47:35.410Z,13.70
2023-03-02T09:50:12.191Z,14.30
2023-03-02T09:52:51.610Z,13.90
2023-03-02T09:55:23.308Z,13.77
2023-03-02T09:57:52.984Z,14.13
2023-03-02T10:00:28.103Z,14.30
2023-03-02T10:03:11.321Z,12.57
2023-03-02T10:05:46.418Z,12.67
2023-03-02T10:08:18.413Z,13.37
2023-03-02T10:10:49.264Z,12.13
2023-03-02T10:13:24.268Z,11.93
2023-03-02T10:16:14.152Z,13.50
2023-03-02T10:18:47.725Z,12.23
2023-03-02T10:21:23.529Z,11.87
2023-03-02T10:23:57.267Z,11.57
2023-03-02T10:26:37.456Z,12.33
2023-03-02T10:29:22.016Z,12.90
2023-03-02T10:31:55.600Z,10.67
2023-03-02T10:34:27.729Z,12.87
2023-03-02T10:36:55.720Z,11.37
2023-03-02T10:39:24.908Z,11.70
2023-03-02T10:41:57.247Z,12.13
2023-03-02T10:44:30.568Z,12.30
2023-03-02T10:46:59.234Z,11.77
2023-03-02T10:49:29.575Z,11.47
2023-03-02T10:52:02.332Z,12.00
2023-03-02T10:54:33.180Z,10.67
2023-03-02T10:57:02.963Z,11.10
2023-03-02T10:59:43.722Z,11.10
2023-03-02T11:02:18.405Z,10.27
2023-03-02T11:04:46.656Z,11.40
2023-03-02T11:07:18.659Z,10.40
2023-03-02T11:09:59.522Z,11.23
2023-03-02T11:12:27.490Z,10.50
2023-03-02T11:15:18.975Z,11.00
2023-03-02T11:17:52.076Z,10.53
2023-03-02T11:20:25.145Z,10.63
2023-03-02T11:23:19.462Z,11.23
2023-03-02T11:25:53.061Z,9.70
2023-03-02T11:28:37.861Z,9.77
2023-03-02T11:31:08.942Z,8.83
2023-03-02T11:33:45.039Z,9.57
2023-03-02T11:36:18.678Z,8.77
2023-03-02T11:38:49.744Z,9.40
2023-03-02T11:41:32.933Z,9.47
2023-03-02T11:44:03.198Z,9.60
2023-03-02T11:46:33.612Z,9.33
2023-03-02T11:49:06.574Z,8.87
2023-03-02T11:51:39.082Z,9.77
2023-03-02T11:54:23.337Z,9.77
2023-03-02T11:56:52.762Z,8.93
2023-03-02T11:59:24.603Z,8.40
2023-03-02T12:01:55.510Z,7.57
2023-03-02T12:04:29.779Z,7.83
2023-03-02T12:06:57.763Z,8.17
2023-03-02T12:09:44.022Z,7.90
2023-03-02T12:12:45.616Z,7.33
2023-03-02T12:15:39.357Z,7.07
2023-03-02T12:18:28.334Z,7.97
2023-03-02T12:21:01.719Z,8.13
2023-03-02T12:23:30.736Z,8.07
2023-03-02T12:26:08.711Z,9.20
2023-03-02T12:28:40.594Z,8.63
2023-03-02T12:31:14.147Z,8.07
2023-03-02T12:33:48.443Z,7.20
2023-03-02T12:36:20.929Z,7.47
2023-03-02T12:39:01.744Z,6.93
2023-03-02T12:41:41.439Z,7.20
2023-03-02T12:44:31.488Z,7.10
2023-03-02T12:47:02.961Z,6.77
2023-03-02T12:49:45.488Z,7.23
2023-03-02T12:52:24.258Z,6.93
2023-03-02T12:55:02.000Z,7.37
2023-03-02T12:57:30.501Z,7.67
2023-03-02T13:00:03.201Z,6.57
2023-03-02T13:02:33.212Z,6.27
2023-03-02T13:05:02.787Z,7.23
2023-03-02T13:07:37.401Z,7.77
2023-03-02T13:10:10.742Z,6.90
2023-03-02T13:12:45.429Z,6.90
2023-03-02T13:15:17.673Z,6.80
2023-03-02T13:17:53.212Z,7.30
2023-03-02T13:20:22.673Z,7.40
2023-03-02T13:22:51.088Z,6.77
2023-03-02T13:25:25.098Z,7.20
2023-03-02T13:27:54.031Z,6.77
2023-03-02T13:30:28.948Z,6.90
2023-03-02T13:33:01.660Z,6.83
2023-03-02T13:35:31.839Z,7.87
2023-03-02T13:38:04.366Z,6.63
2023-03-02T13:40:41.364Z,6.67
2023-03-02T13:43:32.925Z,6.57
2023-03-02T13:46:03.422Z,6.47
2023-03-02T13:48:32.332Z,6.87
2023-03-02T13:51:02.347Z,7.13
2023-03-02T13:53:34.647Z,6.20
2023-03-02T13:56:02.858Z,6.57
2023-03-02T13:58:33.577Z,6.97
2023-03-02T14:01:02.830Z,6.95
2023-03-02T14:03:31.894Z,6.72
2023-03-02T14:06:00.766Z,6.20
2023-03-02T14:08:28.609Z,9.68
2023-03-02T14:10:58.112Z,10.27
2023-03-02T14:13:28.699Z,10.32
2023-03-02T14:15:56.608Z,9.63
2023-03-02T14:18:33.784Z,11.15
2023-03-02T14:21:01.730Z,10.60
2023-03-02T14:23:29.823Z,10.85
2023-03-02T14:25:58.345Z,11.98
2023-03-02T14:28:30.679Z,15.27
2023-03-02T14:30:59.441Z,12.95
2023-03-02T14:33:28.786Z,11.45
2023-03-02T14:35:59.470Z,11.82
2023-03-02T14:38:28.456Z,9.52
2023-03-02T14:40:56.593Z,9.30
2023-03-02T14:43:25.316Z,9.57
2023-03-02T14:45:53.400Z,9.60
2023-03-02T14:48:21.314Z,9.20
2023-03-02T14:50:51.314Z,10.30
2023-03-02T14:53:28.998Z,9.90
2023-03-02T14:55:57.206Z,9.73
2023-03-02T14:58:31.362Z,9.70
2023-03-02T15:00:59.870Z,10.10
2023-03-02T15:03:29.664Z,10.77
2023-03-02T15:06:01.686Z,9.80
2023-03-02T15:08:30.979Z,8.48
2023-03-02T15:10:58.843Z,9.45
2023-03-02T15:13:26.747Z,9.05
2023-03-02T15:15:54.715Z,9.35
2023-03-02T15:18:22.624Z,9.85
2023-03-02T15:20:50.495Z,9.45
2023-03-02T15:23:20.225Z,9.77
2023-03-02T15:25:48.082Z,9.40
2023-03-02T15:28:16.210Z,9.45
2023-03-02T15:30:45.067Z,9.35
2023-03-02T15:33:13.415Z,9.18
2023-03-02T15:35:41.317Z,9.48
2023-03-02T15:38:09.362Z,10.05
2023-03-02T15:40:38.649Z,10.20
2023-03-02T15:43:06.723Z,10.43
2023-03-02T15:45:34.531Z,9.38
2023-03-02T15:48:02.367Z,10.23
2023-03-02T15:50:30.531Z,10.27
2023-03-02T15:52:58.500Z,10.30
2023-03-02T15:55:27.103Z,10.80
2023-03-02T15:57:58.801Z,9.75
2023-03-02T16:00:26.933Z,10.38
2023-03-02T16:02:54.756Z,9.75
2023-03-02T16:05:22.596Z,10.57
2023-03-02T16:07:50.481Z,11.00
2023-03-02T16:10:20.679Z,10.20
2023-03-02T16:12:48.565Z,9.77
2023-03-02T16:15:18.398Z,10.70
2023-03-02T16:17:46.256Z,9.87
2023-03-02T16:20:14.588Z,10.53
2023-03-02T16:22:42.940Z,8.90
2023-03-02T16:25:11.052Z,8.97
2023-03-02T16:27:38.901Z,9.53
2023-03-02T16:30:08.058Z,9.10
2023-03-02T16:32:37.379Z,9.50
2023-03-02T16:35:05.808Z,8.93
2023-03-02T16:37:33.711Z,10.50
2023-03-02T16:40:01.642Z,10.33
2023-03-02T16:42:30.577Z,10.30
2023-03-02T16:44:58.507Z,10.93
2023-03-02T16:47:26.452Z,10.60
2023-03-02T16:49:55.883Z,10.10
2023-03-02T16:52:23.827Z,10.97
2023-03-02T16:54:51.829Z,11.63
2023-03-02T16:57:19.699Z,11.87
2023-03-02T16:59:47.676Z,11.47
2023-03-02T17:02:16.348Z,11.83
2023-03-02T17:04:45.166Z,12.13
2023-03-02T17:07:14.586Z,11.90
2023-03-02T17:09:42.987Z,12.03
2023-03-02T17:12:10.838Z,12.63
2023-03-02T17:14:38.719Z,12.60
2023-03-02T17:17:06.587Z,12.27
2023-03-02T17:19:38.049Z,12.67
2023-03-02T17:22:07.128Z,13.33
2023-03-02T17:24:36.337Z,13.47
2023-03-02T17:27:08.588Z,14.00
2023-03-02T17:29:38.473Z,13.03
2023-03-02T17:32:06.669Z,13.53
2023-03-02T17:34:34.674Z,14.20
2023-03-02T17:37:02.508Z,14.03
2023-03-02T17:39:30.698Z,13.87
2023-03-02T17:41:59.936Z,13.73
2023-03-02T17:44:29.786Z,13.37
2023-03-02T17:46:57.635Z,13.67
2023-03-02T17:49:25.573Z,13.07
2023-03-02T17:51:53.460Z,13.23
2023-03-02T17:54:21.242Z,12.73
2023-03-02T17:56:49.157Z,13.37
2023-03-02T17:59:18.955Z,13.23
2023-03-02T18:01:46.765Z,13.93
2023-03-02T18:04:15.035Z,13.00
2023-03-02T18:06:43.696Z,13.17
2023-03-02T18:09:11.570Z,13.00
2023-03-02T18:11:41.423Z,13.33
2023-03-02T18:14:09.789Z,12.73
2023-03-02T18:16:38.951Z,11.83
2023-03-02T18:19:06.816Z,11.53
2023-03-02T18:21:36.284Z,12.67
2023-03-02T18:24:04.615Z,11.17
2023-03-02T18:26:32.834Z,11.50
2023-03-02T18:29:00.790Z,11.90
2023-03-02T18:31:28.896Z,12.33
2023-03-02T18:33:59.046Z,11.83
2023-03-02T18:36:28.973Z,12.07
2023-03-02T18:38:56.920Z,12.10
2023-03-02T18:41:25.471Z,10.83
2023-03-02T18:43:53.665Z,11.37
2023-03-02T18:46:24.696Z,11.53
2023-03-02T18:48:53.267Z,11.20
2023-03-02T18:51:23.716Z,11.47
2023-03-02T18:53:52.610Z,12.07
2023-03-02T18:56:21.886Z,10.20
2023-03-02T18:58:51.496Z,12.87
2023-03-02T19:01:20.089Z,12.87
2023-03-02T19:03:49.030Z,11.90
2023-03-02T19:06:17.652Z,10.20
2023-03-02T19:08:50.499Z,9.97
2023-03-02T19:11:19.153Z,10.90
2023-03-02T19:13:47.265Z,9.40
2023-03-02T19:16:17.229Z,10.07
2023-03-02T19:18:46.371Z,9.57
2023-03-02T19:21:14.688Z,9.30
2023-03-02T19:23:45.461Z,9.07
2023-03-02T19:26:15.526Z,9.93
2023-03-02T19:28:44.496Z,9.80
2023-03-02T19:31:13.578Z,10.07
2023-03-02T19:33:42.668Z,10.10
2023-03-02T19:36:10.942Z,11.07
2023-03-02T19:38:41.564Z,11.33
2023-03-02T19:41:11.696Z,13.53
2023-03-02T19:43:41.908Z,14.43
2023-03-02T19:46:11.664Z,13.07
2023-03-02T19:48:40.040Z,12.70
2023-03-02T19:51:09.050Z,12.00
2023-03-02T19:53:38.777Z,12.20
2023-03-02T19:56:08.751Z,11.07
2023-03-02T19:58:37.001Z,10.23
2023-03-02T20:01:06.382Z,10.60
2023-03-02T20:03:34.264Z,12.00
2023-03-02T20:06:03.151Z,10.97
2023-03-02T20:08:31.009Z,11.13
2023-03-02T20:10:59.105Z,10.93
2023-03-02T20:13:27.369Z,10.53
2023-03-02T20:15:55.578Z,10.63
2023-03-02T20:18:24.878Z,9.93
2023-03-02T20:20:52.743Z,11.83
2023-03-02T20:23:20.695Z,11.13
2023-03-02T20:25:48.652Z,10.57
2023-03-02T20:28:20.640Z,11.03
2023-03-02T20:30:51.484Z,10.13
2023-03-02T20:33:22.334Z,10.20
2023-03-02T20:35:52.659Z,10.63
2023-03-02T20:38:23.729Z,10.83
2023-03-02T20:40:51.926Z,11.83
2023-03-02T20:43:20.726Z,10.80
2023-03-02T20:45:52.105Z,10.23
2023-03-02T20:48:22.128Z,11.40
2023-03-02T20:50:52.226Z,11.57
2023-03-02T20:53:20.243Z,11.13
2023-03-02T20:55:48.307Z,10.50
2023-03-02T20:58:16.289Z,11.47
2023-03-02T21:00:45.173Z,12.03
2023-03-02T21:03:14.613Z,12.17
2023-03-02T21:05:44.635Z,12.27
2023-03-02T21:08:15.592Z,12.43
2023-03-02T21:10:44.708Z,12.13
2023-03-02T21:13:13.220Z,11.57
2023-03-02T21:15:41.762Z,12.27
2023-03-02T21:18:10.130Z,12.83
2023-03-02T21:20:39.000Z,12.63
2023-03-02T21:23:07.738Z,13.97
2023-03-02T21:25:37.389Z,12.63
2023-03-02T21:28:05.347Z,11.57
2023-03-02T21:30:34.906Z,13.47
2023-03-02T21:33:03.494Z,12.97
2023-03-02T21:35:32.039Z,13.47
2023-03-02T21:38:04.636Z,13.30
2023-03-02T21:40:34.567Z,13.20
2023-03-02T21:43:05.774Z,14.07
2023-03-02T21:45:34.079Z,13.53
2023-03-02T21:48:01.996Z,13.13
2023-03-02T21:50:33.223Z,14.37
2023-03-02T21:53:01.335Z,14.57
2023-03-02T21:55:30.782Z,14.63
2023-03-02T21:57:59.416Z,15.07
2023-03-02T22:00:32.140Z,13.20
2023-03-02T22:02:59.999Z,14.23
2023-03-02T22:05:28.570Z,15.40
2023-03-02T22:07:56.568Z,15.53
2023-03-02T22:10:27.624Z,15.50
2023-03-02T22:12:58.574Z,15.67
2023-03-02T22:15:28.142Z,16.17
2023-03-02T22:17:56.547Z,16.17
2023-03-02T22:20:24.596Z,15.80
2023-03-02T22:22:55.243Z,14.47
2023-03-02T22:25:23.292Z,15.07
2023-03-02T22:27:51.607Z,15.33
2023-03-02T22:30:23.437Z,16.17
2023-03-02T22:32:52.652Z,16.70
2023-03-02T22:35:23.985Z,17.03
2023-03-02T22:37:52.849Z,17.73
2023-03-02T22:40:29.793Z,16.33
2023-03-02T22:43:10.898Z,16.63
2023-03-02T22:45:40.292Z,15.70
2023-03-02T22:48:16.443Z,16.20
2023-03-02T22:50:46.421Z,15.47
2023-03-02T22:53:30.610Z,14.30
2023-03-02T22:56:00.947Z,15.33
2023-03-02T22:58:31.972Z,15.13
2023-03-02T23:01:01.040Z,14.83
2023-03-02T23:03:39.787Z,14.07
2023-03-02T23:06:23.518Z,14.07
2023-03-02T23:08:52.064Z,14.90
2023-03-02T23:11:22.256Z,15.20
2023-03-02T23:13:50.767Z,13.87
2023-03-02T23:16:21.775Z,12.37
2023-03-02T23:18:51.937Z,12.90
2023-03-02T23:21:22.406Z,11.70
2023-03-02T23:23:51.232Z,12.67
2023-03-02T23:26:20.145Z,12.20
2023-03-02T23:28:49.906Z,13.10
2023-03-02T23:31:19.375Z,12.50
2023-03-02T23:33:47.226Z,12.57
2023-03-02T23:36:16.731Z,12.40
2023-03-02T23:38:45.633Z,11.57
2023-03-02T23:41:13.849Z,12.50
2023-03-02T23:43:42.339Z,11.83
2023-03-02T23:46:13.843Z,11.40
2023-03-02T23:48:41.981Z,10.93
2023-03-02T23:51:10.221Z,10.07
2023-03-02T23:53:39.912Z,11.67
2023-03-02T23:56:08.157Z,9.80
2023-03-02T23:58:36.316Z,11.23
